Time;durP1;ratioP1;P1;durP2;ratioP2;P2;SDS_P1;SDS_P2;PMS_P1;PMS_P2;Temp;Humidity;BMP_temperature;BMP_pressure;BME280_temperature;BME280_humidity;BME280_pressure;Samples;Min_cycle;Max_cycle;Signal;HPM_P1;HPM_P2
2022/08/02 00:01:06;;;;;;;1.52;0.77;;;;;;;20.39;63.70;97045.03;10213001;29;20059;-58
2022/08/02 00:06:26;;;;;;;3.28;1.10;;;;;;;20.37;63.81;97037.22;10212593;29;20111;-57
2022/08/02 00:11:46;;;;;;;0.82;0.70;;;;;;;20.38;63.72;97043.41;10212617;29;20059;-58
2022/08/02 00:17:05;;;;;;;1.67;0.80;;;;;;;20.38;63.74;97038.00;10219567;29;20472;-58
2022/08/02 00:22:24;;;;;;;1.30;0.80;;;;;;;20.37;63.78;97039.94;10201915;29;20063;-57
2022/08/02 00:27:44;;;;;;;1.30;0.90;;;;;;;20.37;63.79;97045.34;10211925;29;20048;-58
2022/08/02 00:33:04;;;;;;;1.92;0.77;;;;;;;20.38;63.68;97046.13;10212057;29;20412;-58
2022/08/02 00:38:23;;;;;;;1.15;0.65;;;;;;;20.37;63.66;97042.63;10212204;29;20077;-58
2022/08/02 00:43:44;;;;;;;1.42;0.80;;;;;;;20.36;63.55;97049.16;10213774;29;20115;-58
2022/08/02 00:49:03;;;;;;;0.60;0.60;;;;;;;20.35;63.68;97045.66;10214986;29;20063;-58
2022/08/02 00:54:22;;;;;;;0.90;0.75;;;;;;;20.35;63.56;97040.25;10219151;29;20063;-56
2022/08/02 00:59:42;;;;;;;4.03;0.80;;;;;;;20.35;63.62;97048.38;10218706;29;20070;-58
2022/08/02 01:05:02;;;;;;;1.63;0.80;;;;;;;20.36;63.41;97049.16;10219067;29;20487;-58
2022/08/02 01:10:21;;;;;;;3.22;0.80;;;;;;;20.35;63.46;97058.41;10218515;29;20063;-58
2022/08/02 01:15:45;;;;;;;2.72;0.70;;;;;;;20.35;63.35;97061.09;10217671;29;20051;-58
2022/08/02 01:21:25;;;;;;;3.17;0.80;;;;;;;20.34;63.26;97059.50;10216325;28;20043;-58
2022/08/02 01:27:11;;;;;;;2.88;0.70;;;;;;;20.33;63.24;97064.13;10202938;29;20059;-58
2022/08/02 01:32:34;;;;;;;0.73;0.70;;;;;;;20.33;63.22;97063.34;10218515;29;20059;-58
2022/08/02 01:37:58;;;;;;;8.48;1.13;;;;;;;20.33;63.14;97060.63;10203313;29;20052;-58
2022/08/02 01:43:19;;;;;;;0.95;0.65;;;;;;;20.31;63.09;97060.94;10217597;29;20071;-57
2022/08/02 01:48:40;;;;;;;20.73;3.30;;;;;;;20.32;63.09;97057.13;10215556;28;20055;-58
2022/08/02 01:54:00;;;;;;;3.53;0.90;;;;;;;20.32;63.03;97054.41;10217132;29;20448;-58
2022/08/02 01:59:20;;;;;;;7.53;0.90;;;;;;;20.31;62.88;97060.94;10215872;29;20130;-58
2022/08/02 02:04:40;;;;;;;2.13;0.80;;;;;;;20.31;62.92;97058.25;10214678;28;20052;-58
2022/08/02 02:10:01;;;;;;;1.67;0.70;;;;;;;20.31;62.88;97052.06;10202011;29;20059;-57
2022/08/02 02:15:22;;;;;;;1.38;0.85;;;;;;;20.31;62.78;97049.34;10195701;29;20084;-58
2022/08/02 02:20:42;;;;;;;2.05;0.60;;;;;;;20.29;62.76;97044.25;10215851;29;20444;-58
2022/08/02 02:26:03;;;;;;;2.00;0.80;;;;;;;20.29;62.74;97041.53;10215929;29;20155;-58
2022/08/02 02:31:22;;;;;;;1.17;0.57;;;;;;;20.29;62.46;97048.88;10221530;29;20067;-58
2022/08/02 02:36:48;;;;;;;1.25;0.70;;;;;;;20.28;62.31;97044.56;10218430;29;20419;-58
2022/08/02 02:42:10;;;;;;;2.10;0.80;;;;;;;20.27;62.31;97043.78;10200902;29;20060;-58
2022/08/02 02:47:30;;;;;;;1.15;0.90;;;;;;;20.27;62.26;97041.06;10214776;29;20063;-58
2022/08/02 02:52:51;;;;;;;3.67;0.70;;;;;;;20.28;62.14;97039.94;10216160;29;20055;-58
2022/08/02 02:58:11;;;;;;;0.80;0.80;;;;;;;20.26;62.06;97042.19;10200434;28;20055;-58
2022/08/02 03:03:31;;;;;;;1.65;0.60;;;;;;;20.26;62.09;97053.00;10212461;29;20047;-58
2022/08/02 03:08:50;;;;;;;1.60;0.70;;;;;;;20.26;62.17;97058.41;10214456;29;20123;-58
2022/08/02 03:14:11;;;;;;;0.88;0.63;;;;;;;20.26;62.10;97065.75;10213635;29;20127;-58
2022/08/02 03:19:30;;;;;;;0.70;0.70;;;;;;;20.26;62.07;97084.69;10203410;29;20060;-58
2022/08/02 03:24:49;;;;;;;2.63;0.50;;;;;;;20.25;62.00;97089.28;10199234;29;20052;-58
2022/08/02 03:30:10;;;;;;;1.33;0.50;;;;;;;20.25;61.92;97093.91;10213426;29;20059;-58
2022/08/02 03:35:30;;;;;;;0.82;0.50;;;;;;;20.26;61.87;97100.91;10212942;29;20078;-58
2022/08/02 03:40:50;;;;;;;3.33;0.60;;;;;;;20.24;61.83;97098.53;10225926;28;20035;-58
2022/08/02 03:46:12;;;;;;;0.40;0.40;;;;;;;20.24;61.86;97090.41;10225932;28;20511;-58
2022/08/02 03:51:33;;;;;;;1.42;0.60;;;;;;;20.24;61.79;97086.91;10198466;29;20136;-55
2022/08/02 03:56:52;;;;;;;0.40;0.40;;;;;;;20.23;61.81;97096.94;10203137;29;20074;-58
2022/08/02 04:02:12;;;;;;;1.00;0.60;;;;;;;20.22;61.84;97106.16;10179420;29;20084;-58
2022/08/02 04:07:31;;;;;;;0.40;0.40;;;;;;;20.23;61.83;97115.88;10225415;29;20052;-58
2022/08/02 04:12:51;;;;;;;0.80;0.55;;;;;;;20.23;61.81;97117.78;10220279;29;20052;-58
2022/08/02 04:18:10;;;;;;;0.50;0.50;;;;;;;20.23;61.87;97123.19;10197722;29;20063;-58
2022/08/02 04:23:30;;;;;;;1.02;0.85;;;;;;;20.23;61.94;97125.88;10215008;29;20060;-58
2022/08/02 04:28:50;;;;;;;1.00;0.95;;;;;;;20.08;62.44;97138.00;10219799;29;20400;-58
2022/08/02 04:34:10;;;;;;;1.42;1.05;;;;;;;20.00;63.04;97146.91;10219629;29;20047;-62
2022/08/02 04:39:30;;;;;;;2.45;1.30;;;;;;;19.88;64.72;97147.56;10232525;28;20055;-57
2022/08/02 04:44:50;;;;;;;1.42;1.33;;;;;;;19.73;65.33;97149.59;10219432;29;20063;-58
2022/08/02 04:50:10;;;;;;;2.13;1.40;;;;;;;19.53;67.00;97156.38;10207729;29;20059;-59
2022/08/02 04:55:29;;;;;;;1.25;1.17;;;;;;;19.47;68.07;97149.53;10218469;29;20501;-58
2022/08/02 05:00:48;;;;;;;1.75;1.08;;;;;;;19.53;67.95;97145.56;10227594;28;20418;-58
2022/08/02 05:06:07;;;;;;;1.20;0.93;;;;;;;19.63;67.75;97149.09;10218144;29;20051;-57
2022/08/02 05:11:27;;;;;;;1.00;0.90;;;;;;;19.77;66.96;97146.28;10231234;29;20055;-57
2022/08/02 05:16:46;;;;;;;1.23;1.00;;;;;;;19.87;66.67;97149.44;10217774;29;20059;-58
2022/08/02 05:22:05;;;;;;;0.93;0.93;;;;;;;19.93;66.46;97160.91;10218271;29;20067;-57
2022/08/02 05:27:24;;;;;;;2.75;1.08;;;;;;;19.95;66.49;97167.59;10217932;29;20059;-57
2022/08/02 05:32:45;;;;;;;1.13;1.02;;;;;;;19.98;66.55;97168.06;10229599;29;20056;-57
2022/08/02 05:38:05;;;;;;;1.83;1.08;;;;;;;19.99;66.47;97166.94;10216882;29;20062;-57
2022/08/02 05:43:25;;;;;;;0.90;0.90;;;;;;;20.01;65.81;97162.03;10229893;28;20479;-57
2022/08/02 05:48:44;;;;;;;0.88;0.88;;;;;;;20.03;65.24;97162.50;10217069;29;20055;-57
2022/08/02 05:54:26;;;;;;;1.40;1.30;;;;;;;20.05;65.70;97163.78;10229703;28;20051;-57
2022/08/02 06:00:08;;;;;;;1.65;1.20;;;;;;;20.06;65.30;97161.88;10217027;29;20056;-57
2022/08/02 06:05:39;;;;;;;1.33;1.00;;;;;;;20.07;65.14;97163.44;10223776;28;20063;-56
2022/08/02 06:11:02;;;;;;;1.20;1.10;;;;;;;20.08;65.59;97159.66;10216569;29;20051;-57
2022/08/02 06:16:22;;;;;;;1.17;1.08;;;;;;;20.09;65.32;97163.91;10215063;28;20516;-56
2022/08/02 06:21:41;;;;;;;2.78;1.50;;;;;;;20.10;65.33;97169.03;10201634;29;20111;-57
2022/08/02 06:27:01;;;;;;;1.52;1.42;;;;;;;20.10;65.51;97166.31;10215335;29;20059;-57
2022/08/02 06:32:21;;;;;;;1.50;1.40;;;;;;;20.12;65.22;97176.81;10212187;29;20059;-57
2022/08/02 06:37:43;;;;;;;1.40;1.30;;;;;;;20.11;65.13;97170.63;10224435;29;20056;-57
2022/08/02 06:43:16;;;;;;;1.15;1.13;;;;;;;20.12;65.12;97183.03;10214298;29;20492;-57
2022/08/02 06:48:36;;;;;;;1.65;1.30;;;;;;;20.14;65.23;97177.31;10227010;28;20060;-57
2022/08/02 06:53:56;;;;;;;2.22;1.10;;;;;;;20.13;65.28;97178.41;10227533;28;20500;-57
2022/08/02 06:59:15;;;;;;;2.00;1.13;;;;;;;20.17;65.30;97182.09;10210974;29;20095;-57
2022/08/02 07:04:34;;;;;;;1.13;1.00;;;;;;;20.15;65.15;97181.59;10207414;29;20059;-56
2022/08/02 07:09:54;;;;;;;1.48;1.08;;;;;;;20.17;65.02;97195.59;10203775;29;20456;-57
2022/08/02 07:15:15;;;;;;;0.80;0.80;;;;;;;20.18;64.96;97185.56;10213362;29;20471;-57
2022/08/02 07:20:34;;;;;;;0.95;0.90;;;;;;;20.17;64.96;97184.78;10214021;29;20060;-56
2022/08/02 07:25:53;;;;;;;1.00;0.90;;;;;;;20.18;64.83;97186.38;10212984;29;20132;-57
2022/08/02 07:31:13;;;;;;;1.40;1.00;;;;;;;20.19;64.89;97182.56;10211675;28;20047;-57
2022/08/02 07:36:32;;;;;;;1.20;1.10;;;;;;;20.19;64.83;97176.34;10213197;29;20098;-57
2022/08/02 07:41:52;;;;;;;0.88;0.88;;;;;;;20.20;64.87;97180.63;10212742;29;20063;-57
2022/08/02 07:47:11;;;;;;;1.30;0.93;;;;;;;20.20;64.80;97184.13;10214864;28;20059;-57
2022/08/02 07:52:31;;;;;;;0.80;0.80;;;;;;;20.20;64.91;97189.53;10225419;28;20051;-57
2022/08/02 07:57:51;;;;;;;1.02;1.00;;;;;;;20.20;65.02;97186.84;10211138;29;20571;-57
2022/08/02 08:03:10;;;;;;;0.93;0.93;;;;;;;20.21;64.87;97188.44;10200004;29;20060;-57
2022/08/02 08:08:33;;;;;;;0.95;0.90;;;;;;;20.22;65.00;97181.91;10225047;29;20044;-58
2022/08/02 08:13:53;;;;;;;1.10;1.00;;;;;;;20.22;65.03;97181.13;10212297;29;20063;-57
2022/08/02 08:19:12;;;;;;;1.48;1.08;;;;;;;20.23;65.08;97183.50;10211753;29;20067;-57
2022/08/02 08:24:31;;;;;;;1.60;1.00;;;;;;;20.23;65.09;97188.91;10214634;29;20052;-57
2022/08/02 08:29:50;;;;;;;0.80;0.80;;;;;;;20.23;65.03;97191.63;10212031;29;20051;-57
2022/08/02 08:35:10;;;;;;;0.80;0.80;;;;;;;20.24;65.04;97190.50;10211806;29;20047;-57
2022/08/02 08:40:29;;;;;;;1.63;0.90;;;;;;;20.24;65.03;97185.09;10211524;29;20092;-57
2022/08/02 08:45:49;;;;;;;0.90;0.90;;;;;;;20.25;65.12;97186.69;10197453;29;20051;-57
2022/08/02 08:51:14;;;;;;;1.02;0.90;;;;;;;20.25;65.00;97192.09;10211021;29;20107;-57
2022/08/02 08:56:35;;;;;;;2.25;0.95;;;;;;;20.26;65.26;97188.25;10196847;29;20048;-57
2022/08/02 09:01:55;;;;;;;2.33;1.00;;;;;;;20.28;65.35;97191.44;10211511;29;20052;-58
2022/08/02 09:07:15;;;;;;;1.30;0.80;;;;;;;20.28;65.27;97194.16;10211599;29;20067;-58
2022/08/02 09:12:34;;;;;;;1.00;0.90;;;;;;;20.27;65.24;97198.00;10206857;29;20059;-57
2022/08/02 09:17:53;;;;;;;1.10;0.90;;;;;;;20.28;65.10;97193.38;10217575;29;20055;-58
2022/08/02 09:23:13;;;;;;;0.88;0.88;;;;;;;20.27;65.06;97195.28;10230592;29;20056;-58
2022/08/02 09:28:36;;;;;;;1.70;0.95;;;;;;;20.27;65.00;97192.56;10217940;29;20052;-58
2022/08/02 09:33:57;;;;;;;1.08;0.98;;;;;;;20.28;64.99;97188.75;10208504;29;20064;-58
2022/08/02 09:39:16;;;;;;;0.93;0.85;;;;;;;20.28;65.02;97196.84;10217128;29;20059;-58
2022/08/02 09:44:36;;;;;;;1.55;1.02;;;;;;;20.29;64.98;97186.84;10216600;29;20055;-58
2022/08/02 09:49:57;;;;;;;1.40;1.00;;;;;;;20.29;65.03;97190.34;10217278;29;20444;-58
2022/08/02 09:55:16;;;;;;;1.58;1.10;;;;;;;20.30;65.10;97188.44;10216775;29;20412;-58
2022/08/02 10:00:51;;;;;;;2.08;1.25;;;;;;;20.30;64.95;97183.81;10204434;29;20059;-58
2022/08/02 10:06:10;;;;;;;3.60;1.60;;;;;;;20.30;64.99;97189.22;10229025;29;20066;-58
2022/08/02 10:11:30;;;;;;;3.08;1.58;;;;;;;20.32;64.95;97180.78;10215460;29;20508;-58
2022/08/02 10:16:52;;;;;;;3.13;1.45;;;;;;;20.31;64.90;97185.41;10223877;28;20111;-58
2022/08/02 10:22:13;;;;;;;2.53;1.70;;;;;;;20.31;64.96;97187.31;10214903;29;20059;-58
2022/08/02 10:27:34;;;;;;;3.13;1.77;;;;;;;20.32;64.89;97189.69;10215424;29;20055;-58
2022/08/02 10:32:55;;;;;;;3.75;1.77;;;;;;;20.32;64.81;97173.47;10220624;28;20052;-58
2022/08/02 10:38:15;;;;;;;4.50;2.10;;;;;;;20.32;65.07;97176.16;10200503;29;20063;-58
2022/08/02 10:43:34;;;;;;;3.58;1.80;;;;;;;20.32;64.82;97176.16;10213576;29;20056;-58
2022/08/02 10:49:09;;;;;;;4.82;2.03;;;;;;;20.33;64.80;97169.66;10214893;29;20099;-58
2022/08/02 10:54:34;;;;;;;4.57;2.10;;;;;;;20.34;64.90;97175.84;10204681;29;20059;-58
2022/08/02 11:00:01;;;;;;;3.08;1.95;;;;;;;20.35;64.83;97169.34;10226707;28;20416;-57
2022/08/02 11:05:31;;;;;;;4.00;2.20;;;;;;;20.34;64.88;97162.31;10214089;29;20052;-58
2022/08/02 11:10:51;;;;;;;4.18;2.13;;;;;;;20.35;64.94;97163.94;10214175;29;20419;-58
2022/08/02 11:16:10;;;;;;;4.78;2.30;;;;;;;20.34;64.91;97152.28;10209182;28;20051;-58
2022/08/02 11:21:31;;;;;;;4.22;2.25;;;;;;;20.35;64.83;97153.88;10226245;28;20559;-58
2022/08/02 11:26:51;;;;;;;3.33;2.28;;;;;;;20.37;64.76;97152.78;10213451;29;20052;-58
2022/08/02 11:32:20;;;;;;;4.18;2.13;;;;;;;20.37;64.93;97144.66;10212899;29;20071;-58
2022/08/02 11:37:41;;;;;;;3.93;2.37;;;;;;;20.37;64.87;97150.09;10212472;29;20052;-58
2022/08/02 11:43:01;;;;;;;4.18;2.15;;;;;;;20.35;64.73;97143.06;10220587;29;20366;-58
2022/08/02 11:48:30;;;;;;;4.15;2.03;;;;;;;20.36;64.70;97138.44;10211064;28;20084;-58
2022/08/02 11:53:52;;;;;;;3.83;1.95;;;;;;;20.38;64.55;97135.41;10203247;29;20062;-58
2022/08/02 11:59:12;;;;;;;5.20;2.30;;;;;;;20.38;64.61;97135.41;10212188;29;20071;-58
2022/08/02 12:04:31;;;;;;;3.72;1.90;;;;;;;20.37;64.67;97139.25;10213133;29;20056;-58
2022/08/02 12:09:50;;;;;;;3.47;2.30;;;;;;;20.38;64.77;97125.38;10201486;29;20441;-58
2022/08/02 12:15:09;;;;;;;3.30;1.92;;;;;;;20.40;64.54;97122.38;10212529;29;20107;-58
2022/08/02 12:20:36;;;;;;;3.22;1.80;;;;;;;20.39;64.46;97123.50;10225175;29;20055;-58
2022/08/02 12:26:02;;;;;;;3.35;1.90;;;;;;;20.39;64.60;97115.38;10202562;29;20055;-58
2022/08/02 12:31:21;;;;;;;3.25;1.95;;;;;;;20.38;64.58;97119.97;10212394;29;20071;-58
2022/08/02 12:36:41;;;;;;;3.08;1.85;;;;;;;20.39;64.50;97121.56;10211056;29;20060;-58
2022/08/02 12:42:01;;;;;;;3.15;1.77;;;;;;;20.40;64.59;97111.53;10224011;29;20412;-58
2022/08/02 12:47:21;;;;;;;2.88;1.65;;;;;;;20.40;64.56;97114.25;10217965;29;20062;-58
2022/08/02 12:52:40;;;;;;;3.67;1.88;;;;;;;20.40;64.52;97114.25;10219199;29;20055;-58
2022/08/02 12:58:02;;;;;;;3.85;1.77;;;;;;;20.41;64.45;97123.97;10217122;28;20111;-58
2022/08/02 13:03:22;;;;;;;3.83;1.85;;;;;;;20.41;64.58;97113.16;10218935;29;20408;-58
2022/08/02 13:08:42;;;;;;;3.50;1.98;;;;;;;20.42;64.52;97110.09;10218661;29;20409;-58
2022/08/02 13:14:01;;;;;;;2.17;1.65;;;;;;;20.43;64.54;97105.50;10218680;29;20060;-58
2022/08/02 13:19:21;;;;;;;3.10;1.60;;;;;;;20.43;64.60;97105.50;10203162;29;20079;-58
2022/08/02 13:24:40;;;;;;;4.78;1.80;;;;;;;20.44;64.61;97099.75;10218218;29;20063;-58
2022/08/02 13:30:01;;;;;;;3.88;1.75;;;;;;;20.43;64.62;97083.84;10218160;29;20115;-57
2022/08/02 13:35:20;;;;;;;2.22;1.70;;;;;;;20.45;64.61;97076.19;10218818;29;20110;-58
2022/08/02 13:46:19;;;;;;;4.68;1.90;;;;;;;20.45;64.73;97051.84;10230131;28;20048;-58
2022/08/02 13:51:38;;;;;;;2.60;1.58;;;;;;;20.45;64.81;97039.09;10229815;28;20056;-58
2022/08/02 13:56:57;;;;;;;2.30;1.60;;;;;;;20.46;64.90;97037.97;10215919;29;20051;-58
2022/08/02 14:02:17;;;;;;;1.83;1.35;;;;;;;20.47;64.79;97041.50;10216645;29;20068;-58
2022/08/02 14:07:36;;;;;;;2.80;1.42;;;;;;;20.47;64.86;97042.28;10216455;29;20107;-58
2022/08/02 14:12:55;;;;;;;2.05;1.50;;;;;;;20.48;64.92;97037.66;10228929;28;20051;-58
2022/08/02 14:18:15;;;;;;;2.65;1.48;;;;;;;20.48;64.76;97026.81;10215550;29;20051;-58
2022/08/02 14:23:34;;;;;;;2.55;1.50;;;;;;;20.50;65.02;97030.81;10215847;29;20082;-58
2022/08/02 14:28:54;;;;;;;2.90;1.60;;;;;;;20.49;65.07;97025.72;10228200;28;20055;-58
2022/08/02 14:34:14;;;;;;;2.53;1.50;;;;;;;20.50;65.01;97030.00;10214577;29;20052;-58
2022/08/02 14:39:33;;;;;;;2.20;1.40;;;;;;;20.51;65.17;97034.31;10215445;29;20424;-58
2022/08/02 14:44:52;;;;;;;1.92;1.48;;;;;;;20.51;65.08;97031.59;10227536;29;20052;-58
2022/08/02 14:50:13;;;;;;;1.58;1.40;;;;;;;20.53;65.16;97034.78;10201699;29;20064;-58
2022/08/02 14:55:32;;;;;;;3.30;1.55;;;;;;;20.53;65.10;97023.94;10214858;29;20052;-58
2022/08/02 15:00:51;;;;;;;2.35;1.38;;;;;;;20.55;65.28;97024.41;10210272;29;20055;-58
2022/08/02 15:06:10;;;;;;;1.70;1.45;;;;;;;20.57;65.30;97027.59;10214007;29;20060;-58
2022/08/02 15:11:30;;;;;;;1.92;1.50;;;;;;;20.57;65.21;97030.28;10214508;29;20051;-58
2022/08/02 15:16:49;;;;;;;1.75;1.30;;;;;;;20.58;65.30;97025.66;10213707;29;20120;-58
2022/08/02 15:22:09;;;;;;;1.88;1.60;;;;;;;20.58;65.31;97028.38;10213194;29;20055;-58
2022/08/02 15:27:28;;;;;;;1.50;1.30;;;;;;;20.58;64.47;97018.38;10213073;29;20056;-58
2022/08/02 15:32:49;;;;;;;1.95;1.35;;;;;;;20.58;64.39;97014.84;10213057;29;20107;-57
2022/08/02 15:38:08;;;;;;;3.08;1.35;;;;;;;20.58;64.19;97012.94;10212949;29;20059;-58
2022/08/02 15:43:28;;;;;;;8.48;2.97;;;;;;;20.57;63.33;97014.06;10223833;28;20448;-58
2022/08/02 15:48:47;;;;;;;5.07;3.03;;;;;;;20.55;63.18;97006.25;10202133;29;20052;-59
2022/08/02 15:54:06;;;;;;;12.88;5.07;;;;;;;20.57;63.52;97002.44;10212996;29;20064;-58
2022/08/02 15:59:25;;;;;;;11.50;5.20;;;;;;;20.58;63.84;97004.84;10225208;28;20067;-58
2022/08/02 16:04:45;;;;;;;10.20;4.78;;;;;;;20.57;62.68;97005.94;10212264;29;20055;-58
2022/08/02 16:10:05;;;;;;;13.70;4.22;;;;;;;20.53;62.04;97008.50;10225398;29;20500;-60
2022/08/02 16:15:25;;;;;;;8.60;4.05;;;;;;;20.53;62.42;97010.41;10224046;29;20177;-57
2022/08/02 16:20:44;;;;;;;9.25;4.50;;;;;;;20.54;62.46;97009.28;10217172;29;20059;-58
2022/08/02 16:26:03;;;;;;;6.57;3.40;;;;;;;20.55;62.56;97016.31;10215625;29;20059;-56
2022/08/02 16:31:23;;;;;;;8.55;3.33;;;;;;;20.55;62.75;97008.19;10220170;29;20055;-59
2022/08/02 16:36:42;;;;;;;6.80;3.35;;;;;;;20.57;63.08;97003.22;10219906;29;20416;-58
2022/08/02 16:42:02;;;;;;;8.25;3.65;;;;;;;20.57;63.16;97007.88;10219061;29;20059;-59
2022/08/02 16:47:21;;;;;;;6.40;2.90;;;;;;;20.58;63.26;97004.84;10232135;28;20080;-58
2022/08/02 16:52:41;;;;;;;5.65;3.00;;;;;;;20.58;63.35;97004.84;10218839;29;20393;-58
2022/08/02 16:58:00;;;;;;;4.32;2.55;;;;;;;20.58;63.35;96999.41;10218925;29;20062;-59
2022/08/02 17:03:20;;;;;;;7.20;2.97;;;;;;;20.60;63.54;97008.03;10231704;28;20656;-58
2022/08/02 17:08:39;;;;;;;6.25;2.78;;;;;;;20.59;63.84;97001.03;10218820;29;20111;-58
2022/08/02 17:13:58;;;;;;;3.90;2.45;;;;;;;20.62;63.91;97015.81;10218310;29;20063;-58
2022/08/02 17:19:17;;;;;;;4.07;2.20;;;;;;;20.62;64.09;97011.22;10218884;29;20067;-56
2022/08/02 17:24:37;;;;;;;5.28;2.30;;;;;;;20.63;64.04;97006.59;10230730;29;20059;-58
2022/08/02 17:29:56;;;;;;;4.53;2.05;;;;;;;20.61;64.23;97006.91;10217281;29;20071;-58
2022/08/02 17:35:15;;;;;;;3.90;2.17;;;;;;;20.62;64.31;97000.38;10230344;29;20123;-59
2022/08/02 17:40:35;;;;;;;6.82;2.00;;;;;;;20.63;64.32;96991.13;10202938;29;20064;-57
2022/08/02 17:45:55;;;;;;;7.18;2.30;;;;;;;20.64;64.44;96994.63;10216867;29;20496;-58
2022/08/02 17:51:14;;;;;;;5.07;2.15;;;;;;;20.64;64.25;97008.16;10229536;28;20059;-59
2022/08/02 17:56:33;;;;;;;4.72;1.95;;;;;;;20.65;64.48;97010.53;10229178;28;20060;-58
2022/08/02 18:01:58;;;;;;;3.90;1.98;;;;;;;20.66;64.57;97012.16;10216755;29;20062;-59
2022/08/02 18:07:18;;;;;;;3.97;2.10;;;;;;;20.65;64.52;97013.25;10216011;29;20056;-58
2022/08/02 18:12:37;;;;;;;3.22;1.80;;;;;;;20.66;64.57;97011.31;10227913;28;20508;-59
2022/08/02 18:17:57;;;;;;;6.70;2.00;;;;;;;20.65;64.53;97012.47;10205021;29;20057;-59
2022/08/02 18:23:16;;;;;;;2.88;1.88;;;;;;;20.65;64.45;97009.75;10215967;29;20082;-58
2022/08/02 18:28:35;;;;;;;3.45;1.77;;;;;;;20.65;64.56;97023.28;10215977;29;20131;-58
2022/08/02 18:33:55;;;;;;;5.05;1.90;;;;;;;20.64;64.53;97019.81;10215822;29;20060;-58
2022/08/02 18:39:17;;;;;;;5.20;1.85;;;;;;;20.65;64.41;97015.16;10227832;28;20504;-59
2022/08/02 18:44:37;;;;;;;3.22;1.60;;;;;;;20.64;64.42;97022.50;10214552;29;20082;-58
2022/08/02 18:49:57;;;;;;;2.15;1.60;;;;;;;20.56;64.82;97028.69;10214889;29;20468;-59
2022/08/02 18:55:16;;;;;;;2.05;1.60;;;;;;;20.49;64.37;97025.72;10215106;29;20058;-60
2022/08/02 19:00:36;;;;;;;1.88;1.67;;;;;;;20.47;64.07;97034.16;10207431;29;20064;-58
2022/08/02 19:05:55;;;;;;;2.47;1.52;;;;;;;20.42;64.78;97033.53;10214410;29;20059;-57
2022/08/02 19:11:14;;;;;;;4.72;2.08;;;;;;;20.39;65.61;97035.00;10213186;29;20066;-58
2022/08/02 19:16:34;;;;;;;3.10;2.60;;;;;;;20.30;66.70;97036.91;10213738;29;20062;-60
2022/08/02 19:21:56;;;;;;;3.75;3.13;;;;;;;20.31;65.87;97033.91;10226422;29;20551;-58
2022/08/02 19:27:16;;;;;;;6.03;4.22;;;;;;;20.32;65.51;97040.09;10213639;29;20060;-57
2022/08/02 19:32:36;;;;;;;5.90;4.18;;;;;;;20.31;65.62;97044.72;10203700;29;20118;-57
2022/08/02 19:38:05;;;;;;;3.78;3.40;;;;;;;20.31;65.32;97044.72;10212560;29;20075;-58
2022/08/02 19:43:24;;;;;;;3.90;3.27;;;;;;;20.29;65.49;97046.16;10211838;28;20052;-58
2022/08/02 19:48:44;;;;;;;3.72;2.72;;;;;;;20.25;65.55;97056.84;10201491;29;20066;-58
2022/08/02 19:54:03;;;;;;;3.40;3.10;;;;;;;20.23;65.47;97048.25;10211975;29;20411;-57
2022/08/02 19:59:23;;;;;;;3.83;2.80;;;;;;;20.21;65.48;97057.78;10211910;29;20052;-57
2022/08/02 20:04:43;;;;;;;4.63;3.10;;;;;;;20.20;65.43;97056.22;10212592;29;20060;-57
2022/08/02 20:10:02;;;;;;;4.93;3.20;;;;;;;20.20;65.17;97064.31;10216685;29;20056;-57
2022/08/02 20:15:22;;;;;;;3.00;2.70;;;;;;;20.18;65.23;97066.56;10212333;29;20063;-57
2022/08/02 20:20:44;;;;;;;3.20;2.88;;;;;;;20.12;65.73;97057.81;10225184;29;20052;-59
2022/08/02 20:26:05;;;;;;;2.92;2.05;;;;;;;20.10;65.31;97062.75;10200615;29;20135;-57
2022/08/02 20:31:24;;;;;;;2.53;2.20;;;;;;;20.06;65.06;97068.00;10198044;29;20070;-58
2022/08/02 20:36:43;;;;;;;3.10;2.30;;;;;;;20.04;64.67;97062.13;10211983;29;20161;-58
2022/08/02 20:42:03;;;;;;;2.50;1.80;;;;;;;20.04;64.38;97058.63;10202348;29;20131;-58
2022/08/02 20:47:22;;;;;;;3.05;2.22;;;;;;;20.02;64.27;97063.56;10223032;29;20414;-57
2022/08/02 20:52:42;;;;;;;3.08;2.00;;;;;;;20.01;64.26;97059.25;10211674;29;20058;-58
2022/08/02 20:58:03;;;;;;;4.20;2.13;;;;;;;19.99;64.34;97067.69;10196796;29;20067;-58
2022/08/02 21:03:22;;;;;;;3.53;1.90;;;;;;;20.00;64.29;97071.19;10211329;29;20067;-60
2022/08/02 21:08:41;;;;;;;2.33;1.92;;;;;;;20.05;63.91;97066.44;10208203;29;20063;-61
2022/08/02 21:14:01;;;;;;;2.22;2.13;;;;;;;20.10;63.64;97060.03;10218815;29;20060;-61
2022/08/02 21:19:20;;;;;;;2.78;2.47;;;;;;;20.11;63.54;97056.22;10217877;29;20059;-61
2022/08/02 21:24:39;;;;;;;2.45;2.25;;;;;;;20.13;63.28;97056.69;10218375;29;20060;-61
2022/08/02 21:29:58;;;;;;;2.95;2.30;;;;;;;20.15;63.16;97046.38;10231466;28;20047;-61
2022/08/02 21:35:18;;;;;;;1.98;1.88;;;;;;;20.15;62.84;97049.06;10217823;29;20416;-60
2022/08/02 21:40:37;;;;;;;2.95;2.28;;;;;;;20.17;62.92;97049.53;10216711;29;20056;-60
2022/08/02 21:45:57;;;;;;;3.67;1.98;;;;;;;20.16;62.80;97042.53;10217746;29;20079;-61
2022/08/02 21:51:17;;;;;;;4.20;2.08;;;;;;;20.15;62.66;97039.03;10217280;29;20063;-61
2022/08/02 21:56:36;;;;;;;4.10;2.10;;;;;;;20.15;62.66;97035.53;10217090;29;20058;-61
2022/08/02 22:01:55;;;;;;;2.28;2.08;;;;;;;20.16;62.51;97039.81;10224188;29;20054;-61
2022/08/02 22:07:19;;;;;;;2.13;1.95;;;;;;;20.12;62.36;97044.28;10216935;29;20055;-61
2022/08/02 22:12:38;;;;;;;3.47;2.15;;;;;;;20.12;62.19;97036.97;10216477;29;20074;-61
2022/08/02 22:17:58;;;;;;;2.13;1.90;;;;;;;20.15;62.35;97049.84;10220555;28;20499;-60
2022/08/02 22:23:18;;;;;;;2.10;1.90;;;;;;;20.13;62.41;97051.28;10216435;29;20064;-60
2022/08/02 22:28:37;;;;;;;2.17;2.05;;;;;;;20.13;62.56;97045.88;10215616;29;20058;-60
2022/08/02 22:34:05;;;;;;;2.50;2.30;;;;;;;20.11;62.30;97051.63;10228363;28;20058;-61
2022/08/02 22:39:24;;;;;;;2.00;1.80;;;;;;;20.09;62.28;97053.03;10214815;29;20059;-61
2022/08/02 22:44:44;;;;;;;3.10;2.00;;;;;;;20.08;62.03;97052.25;10215690;29;20067;-60
2022/08/02 22:50:03;;;;;;;2.67;1.85;;;;;;;20.07;62.03;97055.25;10214745;29;20086;-61
2022/08/02 22:55:23;;;;;;;2.13;1.80;;;;;;;20.04;61.92;97050.50;10215042;29;20055;-61
2022/08/02 23:00:42;;;;;;;1.88;1.77;;;;;;;20.03;61.93;97054.31;10214934;29;20055;-61
2022/08/02 23:06:02;;;;;;;1.95;1.85;;;;;;;20.00;61.62;97055.75;10214441;29;20055;-60
2022/08/02 23:11:22;;;;;;;2.08;1.98;;;;;;;20.00;61.64;97061.19;10203134;29;20059;-59
2022/08/02 23:22:22;;;;;;;2.30;2.10;;;;;;;19.97;61.33;97053.69;10213021;29;20059;-61
2022/08/02 23:27:42;;;;;;;4.18;2.30;;;;;;;19.95;61.14;97056.75;10213214;29;20311;-61
2022/08/02 23:33:01;;;;;;;3.25;2.00;;;;;;;19.92;61.25;97060.06;10213714;29;20062;-61
2022/08/02 23:38:20;;;;;;;2.10;1.73;;;;;;;19.91;61.24;97058.47;10213501;29;20079;-60
2022/08/02 23:43:39;;;;;;;2.40;2.20;;;;;;;19.90;61.26;97056.09;10213373;29;20055;-60
2022/08/02 23:48:58;;;;;;;3.53;2.05;;;;;;;19.87;61.25;97057.53;10213141;29;20056;-61
2022/08/02 23:54:18;;;;;;;2.30;2.10;;;;;;;19.84;60.96;97047.34;10212400;29;20508;-61
2022/08/02 23:59:38;;;;;;;4.00;1.90;;;;;;;19.84;61.02;97050.06;10212844;29;20067;-61
